.
WxDataArchive / Data Records for 2008-10-21
2008-10-20 October 2008 2008-10-22

Data Records for Tuesday, 21 October 2008

Time	Temp	Chill	HIndex	Humid	Dewpt	 Wind 	HiWind	WindDir	Rain 	Barom 
-----	----	-----	------	-----	-----	------	------	-------	-----	----- 
00:00	47.6	47.6	47.6	83	42.7	0	2	292	0.00	30.156 
00:05	47.4	47.4	47.4	83	42.5	0	1	292	0.00	30.154 
00:10	47.3	47.3	47.3	83	42.4	0	2	292	0.00	30.154 
00:15	47.1	47.1	47.1	83	42.2	0	2	292	0.00	30.154 
00:20	47.0	47.0	47.0	83	42.1	0	1	292	0.00	30.156 
00:25	46.7	46.7	46.7	82	41.5	0	2	338	0.00	30.157 
00:30	46.5	46.5	46.5	83	41.6	0	2	338	0.00	30.158 
00:35	46.2	46.2	46.2	83	41.3	0	1	338	0.00	30.165 
00:40	46.1	46.1	46.1	83	41.2	0	1	338	0.00	30.164 
00:45	45.8	45.8	45.8	82	40.6	0	1	338	0.00	30.168 
00:50	45.5	45.5	45.5	81	40.0	0	2	338	0.00	30.169 
00:55	45.4	45.4	45.4	81	39.9	0	2	315	0.00	30.169 
01:00	45.1	45.1	45.1	80	39.3	0	1	315	0.00	30.171 
01:05	44.9	44.9	44.9	80	39.1	0	1	315	0.00	30.172 
01:10	44.8	44.8	44.8	80	39.0	0	2	315	0.00	30.173 
01:15	44.5	44.5	44.5	80	38.7	0	1	315	0.00	30.175 
01:20	44.2	44.2	44.2	80	38.4	0	1	315	0.00	30.177 
01:25	44.1	44.1	44.1	80	38.3	0	1	315	0.00	30.181 
01:30	43.8	43.8	43.8	80	38.0	0	1	315	0.00	30.183 
01:35	43.6	43.6	43.6	80	37.8	0	1	315	0.00	30.184 
01:40	43.5	43.5	43.5	81	38.1	0	1	315	0.00	30.185 
01:45	43.3	43.3	43.3	81	37.9	0	1	315	0.00	30.188 
01:50	43.2	43.2	43.2	81	37.8	0	0	---	0.00	30.190 
01:55	43.1	43.1	43.1	81	37.7	0	1	315	0.00	30.192 
02:00	42.9	42.9	42.9	82	37.8	0	1	315	0.00	30.191 
02:05	42.9	42.9	42.9	82	37.8	0	2	315	0.00	30.190 
02:10	42.8	42.8	42.8	82	37.7	0	1	315	0.00	30.192 
02:15	42.6	42.6	42.6	82	37.5	0	1	315	0.00	30.191 
02:20	42.5	42.5	42.5	82	37.4	0	0	---	0.00	30.193 
02:25	42.3	42.3	42.3	82	37.2	0	1	315	0.00	30.195 
02:30	42.2	42.2	42.2	83	37.4	0	0	---	0.00	30.195 
02:35	42.1	42.1	42.1	83	37.3	0	0	---	0.00	30.194 
02:40	41.9	41.9	41.9	83	37.1	0	1	315	0.00	30.197 
02:45	41.6	41.6	41.6	83	36.8	0	0	---	0.00	30.199 
02:50	41.5	41.5	41.5	84	37.0	0	0	---	0.00	30.200 
02:55	41.3	41.3	41.3	84	36.8	0	0	---	0.00	30.202 
03:00	41.2	41.2	41.2	84	36.7	0	0	---	0.00	30.202 
03:05	41.1	41.1	41.1	84	36.6	0	1	315	0.00	30.205 
03:10	40.9	40.9	40.9	84	36.4	0	1	315	0.00	30.205 
03:15	40.9	40.9	40.9	84	36.4	0	1	315	0.00	30.205 
03:20	40.9	40.9	40.9	84	36.4	0	0	---	0.00	30.206 
03:25	40.8	40.8	40.8	84	36.3	0	1	315	0.00	30.206 
03:30	40.6	40.6	40.6	84	36.2	0	1	315	0.00	30.207 
03:35	40.6	40.6	40.6	83	35.8	0	1	315	0.00	30.208 
03:40	40.6	40.6	40.6	83	35.8	0	0	---	0.00	30.208 
03:45	40.5	40.5	40.5	83	35.8	0	0	---	0.00	30.208 
03:50	40.3	40.3	40.3	83	35.6	0	0	---	0.00	30.208 
03:55	40.3	40.3	40.3	83	35.6	0	1	315	0.00	30.210 
04:00	40.2	40.2	40.2	83	35.5	0	1	315	0.00	30.210 
04:05	40.1	40.1	40.1	82	35.1	0	1	315	0.00	30.213 
04:10	39.9	39.9	39.9	82	34.9	0	0	---	0.00	30.216 
04:15	39.9	39.9	39.9	82	34.9	0	1	315	0.00	30.217 
04:20	39.8	39.8	39.8	82	34.8	0	0	---	0.00	30.220 
04:25	39.6	39.6	39.6	82	34.6	0	0	---	0.00	30.222 
04:30	39.5	39.5	39.5	83	34.8	0	0	---	0.00	30.222 
04:35	39.2	39.2	39.2	83	34.5	0	0	---	0.00	30.224 
04:40	39.1	39.1	39.1	84	34.7	0	0	---	0.00	30.225 
04:45	38.9	38.9	38.9	84	34.5	0	0	---	0.00	30.226 
04:50	38.8	38.8	38.8	84	34.4	0	1	315	0.00	30.227 
04:55	38.8	38.8	38.8	84	34.4	0	0	---	0.00	30.230 
05:00	38.6	38.6	38.6	84	34.2	0	0	---	0.00	30.232 
05:05	38.6	38.6	38.6	85	34.5	0	0	---	0.00	30.235 
05:10	38.6	38.6	38.6	85	34.5	0	1	315	0.00	30.237 
05:15	38.6	38.6	38.6	85	34.5	0	0	---	0.00	30.240 
05:20	38.6	38.6	38.6	85	34.5	0	0	---	0.00	30.240 
05:25	38.6	38.6	38.6	85	34.5	0	0	---	0.00	30.241 
05:30	38.8	38.8	38.8	85	34.7	0	1	315	0.00	30.242 
05:35	38.8	38.8	38.8	84	34.4	0	0	---	0.00	30.243 
05:40	38.6	38.6	38.6	84	34.2	0	1	315	0.00	30.245 
05:45	38.6	38.6	38.6	84	34.2	0	1	315	0.00	30.244 
05:50	38.6	38.6	38.6	84	34.2	0	0	---	0.00	30.244 
05:55	38.6	38.6	38.6	84	34.2	0	1	315	0.00	30.247 
06:00	38.5	38.5	38.5	84	34.1	0	0	---	0.00	30.247 
06:05	38.5	38.5	38.5	84	34.1	0	0	---	0.00	30.252 
06:10	38.3	38.3	38.3	84	33.9	0	0	---	0.00	30.258 
06:15	38.2	38.2	38.2	84	33.8	0	0	---	0.00	30.261 
06:20	38.2	38.2	38.2	85	34.1	0	1	315	0.00	30.262 
06:25	38.2	38.2	38.2	85	34.1	0	0	---	0.00	30.263 
06:30	38.0	38.0	38.0	85	33.9	0	0	---	0.00	30.263 
06:35	38.0	38.0	38.0	85	33.9	0	1	315	0.00	30.263 
06:40	37.9	37.9	37.9	85	33.8	0	0	---	0.00	30.263 
06:45	37.9	37.9	37.9	85	33.8	0	0	---	0.00	30.264 
06:50	37.8	37.8	37.8	86	34.0	0	0	---	0.00	30.265 
06:55	37.6	37.6	37.6	86	33.8	0	0	---	0.00	30.267 
07:00	37.5	37.5	37.5	86	33.7	0	0	---	0.00	30.269 
07:05	37.5	37.5	37.5	87	34.0	0	0	---	0.00	30.273 
07:10	37.3	37.3	37.3	87	33.8	0	1	315	0.00	30.278 
07:15	37.3	37.3	37.3	87	33.8	0	0	---	0.00	30.281 
07:20	37.5	37.5	37.5	87	34.0	0	0	---	0.00	30.281 
07:25	37.5	37.5	37.5	87	34.0	0	0	---	0.00	30.282 
07:30	37.5	37.5	37.5	88	34.3	0	1	315	0.00	30.284 
07:35	37.6	37.6	37.6	88	34.4	0	0	---	0.00	30.284 
07:40	37.8	37.8	37.8	88	34.6	0	0	---	0.00	30.286 
07:45	37.9	37.9	37.9	88	34.7	0	0	---	0.00	30.288 
07:50	38.2	38.2	38.2	87	34.7	0	1	315	0.00	30.289 
07:55	38.5	38.5	38.5	87	35.0	0	1	315	0.00	30.291 
08:00	38.9	38.9	38.9	86	35.1	0	1	315	0.00	30.294 
08:05	39.2	39.2	39.2	86	35.4	0	1	315	0.00	30.299 
08:10	39.5	39.5	39.5	85	35.4	0	2	315	0.00	30.300 
08:15	39.9	39.9	39.9	84	35.5	0	1	315	0.00	30.300 
08:20	40.2	40.2	40.2	84	35.8	0	2	315	0.00	30.300 
08:25	40.6	40.6	40.6	83	35.8	0	2	315	0.00	30.300 
08:30	41.1	41.1	41.1	82	36.0	1	2	315	0.00	30.301 
08:35	41.5	41.5	41.5	81	36.1	0	1	315	0.00	30.303 
08:40	41.8	41.8	41.8	80	36.1	0	3	315	0.00	30.307 
08:45	42.2	42.2	42.2	79	36.2	1	3	315	0.00	30.308 
08:50	42.6	42.6	42.6	78	36.2	1	3	315	0.00	30.307 
08:55	42.9	42.9	42.9	77	36.2	1	4	315	0.00	30.308 
09:00	43.3	43.3	43.3	77	36.6	0	2	0	0.00	30.307 
09:05	43.6	43.6	43.6	76	36.5	1	3	315	0.00	30.306 
09:10	43.9	43.9	43.9	76	36.8	0	2	292	0.00	30.306 
09:15	44.3	44.3	44.3	76	37.2	0	2	292	0.00	30.309 
09:20	44.8	44.8	44.8	75	37.4	0	2	315	0.00	30.310 
09:25	45.2	45.2	45.2	72	36.7	1	4	315	0.00	30.311 
09:30	45.5	45.5	45.5	72	37.0	0	2	0	0.00	30.310 
09:35	45.8	45.8	45.8	69	36.2	0	2	0	0.00	30.311 
09:40	46.2	46.2	46.2	69	36.6	0	2	338	0.00	30.311 
09:45	46.5	46.5	46.5	67	36.1	0	2	338	0.00	30.312 
09:50	46.8	46.8	46.8	66	36.0	1	3	338	0.00	30.312 
09:55	47.0	47.0	47.0	64	35.5	1	2	338	0.00	30.313 
10:00	47.1	47.1	47.1	62	34.8	1	3	315	0.00	30.314 
10:05	47.4	47.4	47.4	62	35.0	1	2	292	0.00	30.316 
10:10	47.7	47.7	47.7	61	34.9	1	3	315	0.00	30.312 
10:15	47.9	47.9	47.9	58	33.8	1	3	22	0.00	30.313 
10:20	47.9	47.9	47.9	57	33.4	1	3	0	0.00	30.315 
10:25	48.2	48.2	48.2	58	34.1	1	4	338	0.00	30.312 
10:30	48.6	48.6	48.6	55	33.2	1	4	338	0.00	30.312 
10:35	48.6	48.6	48.6	54	32.7	1	4	0	0.00	30.316 
10:40	48.5	48.5	48.5	54	32.6	1	3	22	0.00	30.313 
10:45	48.5	48.5	48.5	53	32.2	1	4	0	0.00	30.316 
10:50	48.9	48.9	48.9	53	32.5	1	3	315	0.00	30.316 
10:55	49.2	49.2	49.2	56	34.2	1	3	315	0.00	30.317 
11:00	49.5	49.5	49.5	52	32.6	1	3	315	0.00	30.317 
11:05	49.4	49.4	49.4	50	31.5	1	3	315	0.00	30.318 
11:10	49.6	49.6	49.6	50	31.7	1	4	338	0.00	30.316 
11:15	49.9	49.9	49.9	49	31.5	1	3	292	0.00	30.318 
11:20	50.2	50.2	50.2	48	31.3	1	3	315	0.00	30.318 
11:25	50.7	50.7	50.7	50	32.7	0	3	315	0.00	30.320 
11:30	50.7	50.7	50.7	46	30.7	1	4	292	0.00	30.321 
11:35	50.8	50.8	50.8	49	32.3	1	2	292	0.00	30.322 
11:40	51.1	51.1	51.1	45	30.5	1	5	270	0.00	30.322 
11:45	51.3	51.3	51.3	45	30.7	1	2	338	0.00	30.321 
11:50	51.1	51.1	51.1	43	29.4	1	5	292	0.00	30.320 
11:55	51.4	51.4	51.4	44	30.2	1	2	315	0.00	30.320 
12:00	51.4	51.4	51.4	42	29.1	1	3	338	0.00	30.319 
12:05	51.6	51.6	51.6	42	29.3	1	4	270	0.00	30.318 
12:10	51.9	51.9	51.9	42	29.5	1	3	292	0.00	30.319 
12:15	51.9	51.9	51.9	39	27.7	1	4	22	0.00	30.315 
12:20	52.2	52.2	52.2	46	32.1	0	2	22	0.00	30.312 
12:25	52.5	52.5	52.5	41	29.5	0	2	338	0.00	30.309 
12:30	52.3	52.3	52.3	42	29.9	1	3	315	0.00	30.310 
12:35	52.3	52.3	52.3	41	29.3	1	3	22	0.00	30.309 
12:40	52.3	52.3	52.3	37	26.8	1	5	338	0.00	30.309 
12:45	52.3	52.3	52.3	39	28.1	1	4	338	0.00	30.307 
12:50	52.3	52.3	52.3	38	27.5	1	5	22	0.00	30.307 
12:55	52.2	52.2	52.2	39	28.0	1	3	0	0.00	30.305 
13:00	52.5	52.5	52.5	42	30.1	0	3	292	0.00	30.297 
13:05	52.6	52.6	52.6	38	27.7	1	5	22	0.00	30.298 
13:10	52.6	52.6	52.6	38	27.7	1	4	45	0.00	30.298 
13:15	52.6	52.6	52.6	36	26.4	1	4	292	0.00	30.297 
13:20	52.6	52.6	52.6	39	28.4	1	3	22	0.00	30.297 
13:25	52.8	52.8	52.8	39	28.5	1	3	90	0.00	30.298 
13:30	53.1	53.1	53.1	38	28.2	1	3	338	0.00	30.296 
13:35	52.9	52.9	52.9	38	28.0	2	7	135	0.00	30.295 
13:40	52.8	52.8	52.8	40	29.2	1	5	0	0.00	30.295 
13:45	52.9	52.9	52.9	36	26.7	1	4	292	0.00	30.292 
13:50	52.9	52.9	52.9	36	26.7	1	3	292	0.00	30.293 
13:55	52.9	52.9	52.9	35	26.0	1	3	315	0.00	30.293 
14:00	52.9	52.9	52.9	35	26.0	1	3	315	0.00	30.291 
14:05	52.8	52.8	52.8	36	26.6	1	5	338	0.00	30.294 
14:10	52.8	52.8	52.8	37	27.3	1	5	0	0.00	30.294 
14:15	52.9	52.9	52.9	39	28.6	1	6	338	0.00	30.291 
14:20	52.9	52.9	52.9	34	25.3	2	4	68	0.00	30.289 
14:25	53.1	53.1	53.1	34	25.5	0	3	45	0.00	30.291 
14:30	53.1	53.1	53.1	37	27.5	0	3	315	0.00	30.289 
14:35	53.1	53.1	53.1	35	26.2	2	5	45	0.00	30.290 
14:40	53.1	53.1	53.1	35	26.2	1	3	315	0.00	30.292 
14:45	53.2	53.2	53.2	31	23.4	1	3	315	0.00	30.290 
14:50	53.1	53.1	53.1	34	25.5	1	4	315	0.00	30.288 
14:55	52.9	52.9	52.9	32	23.9	1	5	22	0.00	30.292 
15:00	52.8	52.8	52.8	32	23.8	0	2	22	0.00	30.289 
15:05	52.8	52.8	52.8	31	23.0	0	2	22	0.00	30.291 
15:10	52.8	52.8	52.8	34	25.2	1	4	22	0.00	30.289 
15:15	52.8	52.8	52.8	32	23.8	1	7	338	0.00	30.291 
15:20	52.6	52.6	52.6	31	22.8	1	7	315	0.00	30.293 
15:25	52.6	52.6	52.6	35	25.7	1	5	270	0.00	30.291 
15:30	52.6	52.6	52.6	33	24.3	0	1	22	0.00	30.289 
15:35	52.6	52.6	52.6	34	25.0	0	3	315	0.00	30.288 
15:40	52.6	52.6	52.6	34	25.0	1	3	338	0.00	30.285 
15:45	52.5	52.5	52.5	35	25.6	0	3	0	0.00	30.284 
15:50	52.3	52.3	52.3	35	25.5	0	2	0	0.00	30.284 
15:55	52.3	52.3	52.3	36	26.1	1	4	45	0.00	30.285 
16:00	52.3	52.3	52.3	33	24.1	0	3	292	0.00	30.287 
16:05	52.2	52.2	52.2	34	24.7	1	5	292	0.00	30.287 
16:10	52.2	52.2	52.2	32	23.2	1	2	315	0.00	30.289 
16:15	52.3	52.3	52.3	32	23.3	1	4	292	0.00	30.288 
16:20	52.3	52.3	52.3	35	25.5	0	4	270	0.00	30.287 
16:25	52.2	52.2	52.2	34	24.7	1	4	292	0.00	30.290 
16:30	52.0	52.0	52.0	34	24.5	1	3	315	0.00	30.293 
16:35	51.7	51.7	51.7	34	24.2	0	3	0	0.00	30.293 
16:40	51.6	51.6	51.6	35	24.9	0	3	292	0.00	30.291 
16:45	51.4	51.4	51.4	35	24.7	0	2	292	0.00	30.294 
16:50	51.3	51.3	51.3	34	23.9	0	2	292	0.00	30.295 
16:55	51.1	51.1	51.1	35	24.4	1	3	22	0.00	30.297 
17:00	51.0	51.0	51.0	35	24.3	0	2	248	0.00	30.297 
17:05	50.8	50.8	50.8	36	24.8	0	2	292	0.00	30.298 
17:10	50.7	50.7	50.7	36	24.7	0	1	292	0.00	30.298 
17:15	50.4	50.4	50.4	37	25.1	0	1	292	0.00	30.299 
17:20	50.1	50.1	50.1	38	25.5	0	1	292	0.00	30.301 
17:25	49.9	49.9	49.9	37	24.7	0	2	292	0.00	30.301 
17:30	49.6	49.6	49.6	38	25.0	0	1	292	0.00	30.302 
17:35	49.4	49.4	49.4	38	24.9	0	0	---	0.00	30.301 
17:40	49.1	49.1	49.1	40	25.8	0	0	---	0.00	30.301 
17:45	48.8	48.8	48.8	41	26.2	0	1	292	0.00	30.301 
17:50	48.3	48.3	48.3	41	25.7	0	0	---	0.00	30.303 
17:55	48.0	48.0	48.0	42	26.0	0	0	---	0.00	30.304 
18:00	47.4	47.4	47.4	43	26.0	0	0	---	0.00	30.304 
18:05	47.0	47.0	47.0	44	26.2	0	0	---	0.00	30.309 
18:10	46.4	46.4	46.4	46	26.8	0	0	---	0.00	30.312 
18:15	45.8	45.8	45.8	47	26.7	0	0	---	0.00	30.315 
18:20	45.2	45.2	45.2	49	27.2	0	0	---	0.00	30.316 
18:25	44.6	44.6	44.6	50	27.1	0	0	---	0.00	30.318 
18:30	44.1	44.1	44.1	54	28.5	0	0	---	0.00	30.318 
18:35	43.6	43.6	43.6	56	29.0	0	0	---	0.00	30.319 
18:40	43.1	43.1	43.1	57	28.9	0	0	---	0.00	30.320 
18:45	42.6	42.6	42.6	57	28.4	0	0	---	0.00	30.322 
18:50	42.3	42.3	42.3	56	27.7	0	0	---	0.00	30.323 
18:55	41.9	41.9	41.9	57	27.8	0	0	---	0.00	30.323 
19:00	41.6	41.6	41.6	58	27.9	0	0	---	0.00	30.323 
19:05	41.3	41.3	41.3	59	28.1	0	0	---	0.00	30.323 
19:10	40.9	40.9	40.9	58	27.3	0	0	---	0.00	30.323 
19:15	40.6	40.6	40.6	60	27.8	0	0	---	0.00	30.322 
19:20	40.2	40.2	40.2	60	27.4	0	0	---	0.00	30.325 
19:25	39.9	39.9	39.9	62	28.0	0	0	---	0.00	30.325 
19:30	39.6	39.6	39.6	64	28.4	0	0	---	0.00	30.325 
19:35	39.3	39.3	39.3	65	28.5	0	0	---	0.00	30.326 
19:40	39.1	39.1	39.1	65	28.3	0	0	---	0.00	30.326 
19:45	38.8	38.8	38.8	65	28.1	0	0	---	0.00	30.326 
19:50	38.6	38.6	38.6	64	27.5	0	0	---	0.00	30.326 
19:55	38.5	38.5	38.5	65	27.8	0	0	---	0.00	30.327 
20:00	38.3	38.3	38.3	65	27.6	0	0	---	0.00	30.331 
20:05	38.2	38.2	38.2	65	27.5	0	0	---	0.00	30.328 
20:10	38.0	38.0	38.0	68	28.4	0	0	---	0.00	30.328 
20:15	37.9	37.9	37.9	69	28.7	0	0	---	0.00	30.332 
20:20	37.8	37.8	37.8	69	28.6	0	0	---	0.00	30.331 
20:25	37.6	37.6	37.6	69	28.4	0	0	---	0.00	30.333 
20:30	37.5	37.5	37.5	70	28.6	0	0	---	0.00	30.336 
20:35	37.2	37.2	37.2	70	28.3	0	0	---	0.00	30.337 
20:40	37.0	37.0	37.0	71	28.5	0	0	---	0.00	30.337 
20:45	36.8	36.8	36.8	71	28.3	0	0	---	0.00	30.337 
20:50	36.6	36.6	36.6	72	28.4	0	0	---	0.00	30.338 
20:55	36.5	36.5	36.5	72	28.3	0	0	---	0.00	30.339 
21:00	36.2	36.2	36.2	73	28.4	0	0	---	0.00	30.341 
21:05	36.0	36.0	36.0	74	28.5	0	0	---	0.00	30.340 
21:10	35.9	35.9	35.9	74	28.4	0	0	---	0.00	30.342 
21:15	35.8	35.8	35.8	75	28.7	0	0	---	0.00	30.343 
21:20	35.6	35.6	35.6	75	28.5	0	0	---	0.00	30.344 
21:25	35.5	35.5	35.5	76	28.7	0	0	---	0.00	30.344 
21:30	35.2	35.2	35.2	77	28.7	0	0	---	0.00	30.347 
21:35	35.0	35.0	35.0	77	28.5	0	0	---	0.00	30.349 
21:40	34.9	34.9	34.9	78	28.7	0	0	---	0.00	30.349 
21:45	34.7	34.7	34.7	78	28.6	0	0	---	0.00	30.349 
21:50	34.6	34.6	34.6	79	28.8	0	0	---	0.00	30.351 
21:55	34.4	34.4	34.4	79	28.6	0	0	---	0.00	30.351 
22:00	34.3	34.3	34.3	79	28.5	0	0	---	0.00	30.352 
22:05	34.1	34.1	34.1	80	28.6	0	0	---	0.00	30.349 
22:10	33.8	33.8	33.8	81	28.6	0	0	---	0.00	30.350 
22:15	33.7	33.7	33.7	81	28.5	0	0	---	0.00	30.351 
22:20	33.5	33.5	33.5	81	28.3	0	0	---	0.00	30.351 
22:25	33.4	33.4	33.4	81	28.2	0	0	---	0.00	30.353 
22:30	33.2	33.2	33.2	82	28.3	0	0	---	0.00	30.354 
22:35	33.2	33.2	33.2	82	28.3	0	0	---	0.00	30.354 
22:40	33.1	33.1	33.1	82	28.2	0	0	---	0.00	30.353 
22:45	33.1	33.1	33.1	83	28.5	0	0	---	0.00	30.353 
22:50	33.1	33.1	33.1	83	28.5	0	0	---	0.00	30.353 
22:55	32.9	32.9	32.9	83	28.3	0	0	---	0.00	30.354 
23:00	32.8	32.8	32.8	83	28.2	0	0	---	0.00	30.354 
23:05	32.7	32.7	32.7	84	28.4	0	0	---	0.00	30.351 
23:10	32.5	32.5	32.5	84	28.2	0	0	---	0.00	30.351 
23:15	32.5	32.5	32.5	84	28.2	0	0	---	0.00	30.351 
23:20	32.4	32.4	32.4	84	28.1	0	0	---	0.00	30.352 
23:25	32.2	32.2	32.2	84	27.9	0	0	---	0.00	30.352 
23:30	32.2	32.2	32.2	84	27.9	0	0	---	0.00	30.351 
23:35	32.1	32.1	32.1	84	27.8	0	0	---	0.00	30.349 
23:40	32.1	32.1	32.1	85	28.1	0	0	---	0.00	30.348 
23:45	31.9	31.9	31.9	85	27.9	0	0	---	0.00	30.346 
23:50	31.8	31.8	31.8	85	27.8	0	0	---	0.00	30.345 
23:55	31.8	31.8	31.8	85	27.8	0	0	---	0.00	30.346 

CoCoRaHS
IN-AL-39
A2 Web Hosting
Creative Commons License
GoDaddy
Look for:

loaded 2017-10-18 07:21:47 • last modified 2010-11-18 10:43:29
Privacy PolicyDisclaimer
• wx.awcolley.com is powered by PmWiki v.2002016 •
• all content (unless otherwise noted) © 2017 A W Colley